KRAL

Riverside Municipal Airport

Riverside, California, USA
METAR KRAL 121753Z 00000KT 10SM SCT250 13/06 A3013 RMK AO2 SLP195 T01280061 10133 20061 51009
Observed Flight Rules
Dec-12 @ 17:53 UTC (57 minutes ago) Visual Flight Rules
Visibility Clouds
10 miles
  • Scattered at 25,000' AGL
Temperatures Readings
Current 13°C / 55°F
Dewpoint 6°C / 43°F
Humidity 63%
Altimeter 30.13" Hg
Pressure 1019.5 hPa
Elevation 252
METAR KRAL 121753Z 00000KT 10SM SCT250 13/06 A3013 RMK AO2 SLP195 T01280061 10133 20061 51009
Observed Flight Rules
Dec-12 @ 17:53 UTC
(57 minutes ago)
VFR
Clouds
  • Scattered at 25,000' AGL
Temperature Dewpoint
13°C / 55°F 6°C / 43°F
Humidity Altimeter Pressure
63% 30.13" Hg 1019.5 hPa